createdAt,value
2023-05-19T00:00:26.199Z,3.00
2023-05-19T00:02:56.271Z,2.65
2023-05-19T00:05:25.447Z,2.63
2023-05-19T00:07:59.971Z,2.40
2023-05-19T00:10:31.637Z,2.53
2023-05-19T00:13:03.083Z,2.80
2023-05-19T00:15:31.846Z,2.70
2023-05-19T00:17:59.814Z,2.80
2023-05-19T00:20:28.666Z,2.38
2023-05-19T00:22:56.733Z,2.90
2023-05-19T00:25:24.901Z,2.65
2023-05-19T00:27:53.741Z,2.80
2023-05-19T00:30:23.832Z,2.72
2023-05-19T00:32:52.854Z,2.67
2023-05-19T00:35:22.032Z,2.70
2023-05-19T00:37:50.055Z,2.50
2023-05-19T00:40:18.838Z,2.67
2023-05-19T00:42:48.340Z,2.97
2023-05-19T00:45:16.280Z,2.72
2023-05-19T00:47:46.263Z,3.03
2023-05-19T00:52:42.503Z,3.00
2023-05-19T00:55:11.559Z,2.75
2023-05-19T00:57:40.055Z,3.35
2023-05-19T01:00:11.730Z,3.42
2023-05-19T01:02:40.792Z,2.92
2023-05-19T01:05:11.679Z,3.80
2023-05-19T01:07:40.267Z,3.17
2023-05-19T01:10:08.699Z,3.22
2023-05-19T01:12:38.480Z,3.70
2023-05-19T01:15:07.816Z,3.75
2023-05-19T01:17:47.320Z,3.83
2023-05-19T01:20:23.309Z,3.65
2023-05-19T01:23:30.637Z,3.90
2023-05-19T01:26:31.724Z,3.65
2023-05-19T01:29:16.660Z,4.18
2023-05-19T01:31:49.012Z,4.05
2023-05-19T01:34:18.995Z,3.67
2023-05-19T01:36:49.934Z,3.67
2023-05-19T01:39:19.084Z,4.05
2023-05-19T01:41:47.798Z,3.97
2023-05-19T01:44:17.126Z,3.77
2023-05-19T01:46:47.779Z,3.65
2023-05-19T01:49:15.824Z,4.03
2023-05-19T01:51:45.983Z,4.38
2023-05-19T01:54:14.953Z,4.13
2023-05-19T01:56:53.840Z,3.95
2023-05-19T01:59:35.392Z,3.97
2023-05-19T02:02:14.738Z,4.15
2023-05-19T02:04:48.079Z,3.67
2023-05-19T02:07:23.645Z,3.38
2023-05-19T02:09:56.889Z,4.05
2023-05-19T02:12:29.529Z,3.72
2023-05-19T02:15:05.600Z,3.97
2023-05-19T02:17:37.746Z,4.10
2023-05-19T02:20:09.234Z,4.05
2023-05-19T02:22:37.885Z,4.22
2023-05-19T02:25:06.937Z,4.13
2023-05-19T02:27:36.618Z,4.30
2023-05-19T02:30:04.957Z,3.83
2023-05-19T02:32:33.669Z,3.95
2023-05-19T02:35:04.544Z,4.07
2023-05-19T02:37:32.584Z,4.18
2023-05-19T02:40:00.657Z,4.75
2023-05-19T02:42:29.571Z,4.43
2023-05-19T02:44:57.628Z,4.03
2023-05-19T02:47:25.639Z,4.88
2023-05-19T02:49:54.484Z,3.40
2023-05-19T02:52:24.301Z,3.63
2023-05-19T02:54:52.790Z,4.20
2023-05-19T02:57:22.406Z,4.20
2023-05-19T02:59:51.058Z,4.03
2023-05-19T03:02:19.736Z,3.70
2023-05-19T03:04:48.820Z,4.32
2023-05-19T03:07:16.982Z,3.88
2023-05-19T03:09:46.429Z,3.35
2023-05-19T03:12:14.843Z,3.53
2023-05-19T03:14:44.275Z,3.38
2023-05-19T03:17:13.012Z,4.78
2023-05-19T03:19:42.110Z,4.22
2023-05-19T03:22:10.150Z,4.07
2023-05-19T03:24:38.505Z,3.38
2023-05-19T03:27:09.764Z,3.80
2023-05-19T03:29:38.730Z,3.70
2023-05-19T03:32:07.163Z,3.83
2023-05-19T03:34:35.713Z,3.75
2023-05-19T03:37:04.606Z,3.67
2023-05-19T03:39:32.719Z,3.95
2023-05-19T03:42:01.804Z,3.97
2023-05-19T03:44:32.037Z,4.35
2023-05-19T03:47:01.752Z,4.85
2023-05-19T03:49:54.519Z,3.83
2023-05-19T03:52:46.624Z,3.83
2023-05-19T03:55:26.204Z,4.30
2023-05-19T03:57:54.173Z,3.88
2023-05-19T04:00:24.010Z,4.15
2023-05-19T04:02:52.880Z,4.13
2023-05-19T04:05:20.889Z,4.18
2023-05-19T04:07:49.299Z,3.95
2023-05-19T04:10:19.186Z,3.85
2023-05-19T04:12:48.737Z,3.72
2023-05-19T04:15:17.283Z,3.97
2023-05-19T04:17:47.353Z,4.13
2023-05-19T04:20:15.625Z,3.97
2023-05-19T04:22:44.051Z,4.07
2023-05-19T04:25:12.464Z,4.10
2023-05-19T04:27:40.981Z,4.20
2023-05-19T04:30:11.362Z,4.20
2023-05-19T04:32:41.440Z,4.35
2023-05-19T04:35:14.166Z,4.35
2023-05-19T04:37:45.918Z,4.25
2023-05-19T04:40:16.424Z,4.22
2023-05-19T04:42:46.144Z,4.28
2023-05-19T04:47:48.588Z,4.65
2023-05-19T04:50:18.130Z,4.82
2023-05-19T04:55:17.231Z,4.80
2023-05-19T04:57:47.466Z,4.72
2023-05-19T05:00:16.877Z,5.38
2023-05-19T05:03:01.427Z,4.93
2023-05-19T05:05:32.842Z,4.95
2023-05-19T05:08:02.535Z,5.10
2023-05-19T05:10:35.444Z,5.20
2023-05-19T05:13:04.827Z,5.65
2023-05-19T05:15:33.332Z,5.57
2023-05-19T05:18:05.518Z,4.75
2023-05-19T05:20:35.870Z,5.65
2023-05-19T05:23:05.705Z,5.05
2023-05-19T05:25:35.812Z,5.00
2023-05-19T05:28:05.540Z,4.63
2023-05-19T05:30:36.132Z,4.65
2023-05-19T05:33:06.369Z,4.95
2023-05-19T05:35:41.751Z,4.45
2023-05-19T05:38:12.672Z,4.50
2023-05-19T05:40:41.592Z,4.63
2023-05-19T05:43:10.088Z,4.35
2023-05-19T05:45:45.422Z,4.75
2023-05-19T05:48:14.531Z,4.90
2023-05-19T05:50:44.650Z,4.87
2023-05-19T05:53:20.461Z,4.90
2023-05-19T05:55:53.564Z,5.47
2023-05-19T05:58:26.470Z,4.90
2023-05-19T06:00:57.650Z,5.20
2023-05-19T06:03:27.761Z,5.07
2023-05-19T06:05:59.193Z,4.88
2023-05-19T06:10:55.980Z,4.45
2023-05-19T06:13:24.207Z,4.28
2023-05-19T06:15:53.872Z,3.60
2023-05-19T06:18:26.810Z,3.80
2023-05-19T06:20:55.681Z,3.95
2023-05-19T06:23:26.784Z,4.03
2023-05-19T06:25:55.663Z,3.80
2023-05-19T06:28:23.711Z,4.10
2023-05-19T06:30:53.214Z,4.93
2023-05-19T06:33:29.468Z,3.50
2023-05-19T06:35:57.866Z,3.97
2023-05-19T06:38:27.788Z,4.30
2023-05-19T06:40:56.926Z,4.18
2023-05-19T06:43:25.775Z,3.70
2023-05-19T06:45:56.829Z,3.50
2023-05-19T06:50:54.976Z,3.75
2023-05-19T06:53:24.150Z,3.42
2023-05-19T06:56:00.036Z,3.80
2023-05-19T07:01:04.614Z,3.55
2023-05-19T07:03:39.781Z,3.25
2023-05-19T07:06:09.858Z,3.13
2023-05-19T07:08:38.468Z,2.78
2023-05-19T07:13:38.070Z,2.67
2023-05-19T07:16:08.033Z,2.88
2023-05-19T07:18:36.147Z,2.85
2023-05-19T07:21:05.096Z,2.92
2023-05-19T07:23:33.527Z,3.05
2023-05-19T07:26:01.500Z,3.17
2023-05-19T07:28:31.346Z,3.15
2023-05-19T07:30:59.285Z,2.90
2023-05-19T07:33:28.040Z,2.85
2023-05-19T07:35:57.320Z,2.90
2023-05-19T07:38:25.328Z,3.22
2023-05-19T07:40:53.780Z,2.80
2023-05-19T07:43:22.203Z,2.75
2023-05-19T07:45:53.520Z,3.00
2023-05-19T07:48:22.914Z,2.95
2023-05-19T07:50:51.149Z,3.05
2023-05-19T07:53:19.874Z,3.20
2023-05-19T07:55:48.851Z,3.08
2023-05-19T07:58:17.464Z,2.83
2023-05-19T08:00:46.028Z,2.63
2023-05-19T08:03:18.404Z,2.60
2023-05-19T08:05:46.641Z,3.25
2023-05-19T08:08:16.924Z,2.90
2023-05-19T08:10:45.987Z,2.58
2023-05-19T08:13:14.233Z,2.45
2023-05-19T08:15:42.769Z,2.80
2023-05-19T08:18:11.917Z,1.73
2023-05-19T08:20:41.249Z,2.22
2023-05-19T08:23:09.662Z,2.78
2023-05-19T08:25:38.574Z,2.30
2023-05-19T08:28:06.560Z,2.10
2023-05-19T08:30:34.742Z,2.22
2023-05-19T08:33:03.628Z,2.15
2023-05-19T08:35:32.434Z,2.30
2023-05-19T08:38:01.965Z,1.80
2023-05-19T08:40:32.282Z,2.25
2023-05-19T08:43:03.385Z,2.10
2023-05-19T08:45:34.814Z,2.50
2023-05-19T08:48:08.050Z,1.90
2023-05-19T08:50:40.462Z,2.47
2023-05-19T08:53:31.940Z,1.80
2023-05-19T08:56:10.164Z,2.00
2023-05-19T08:58:40.613Z,1.92
2023-05-19T09:01:08.929Z,1.77
2023-05-19T09:03:38.185Z,1.77
2023-05-19T09:08:37.694Z,1.55
2023-05-19T09:11:06.383Z,1.80
2023-05-19T09:13:34.855Z,1.33
2023-05-19T09:16:03.763Z,1.70
2023-05-19T09:18:33.006Z,1.73
2023-05-19T09:21:02.725Z,1.80
2023-05-19T09:23:33.688Z,1.55
2023-05-19T09:26:07.772Z,1.48
2023-05-19T09:28:38.272Z,1.45
2023-05-19T09:31:07.431Z,1.50
2023-05-19T09:33:38.089Z,1.50
2023-05-19T09:36:09.252Z,2.08
2023-05-19T09:38:38.096Z,1.65
2023-05-19T09:41:08.818Z,1.70
2023-05-19T09:43:37.065Z,1.30
2023-05-19T09:46:06.015Z,1.23
2023-05-19T09:48:34.564Z,0.90
2023-05-19T09:51:03.107Z,1.13
2023-05-19T09:53:33.454Z,1.70
2023-05-19T09:57:48.736Z,1.30
2023-05-19T10:00:18.249Z,1.20
2023-05-19T10:02:49.323Z,1.05
2023-05-19T10:05:20.362Z,1.20
2023-05-19T10:07:52.923Z,0.85
2023-05-19T10:10:22.145Z,1.52
2023-05-19T10:12:52.204Z,8.55
2023-05-19T10:15:26.277Z,1.00
2023-05-19T10:17:55.158Z,1.20
2023-05-19T10:20:23.532Z,1.13
2023-05-19T10:22:52.637Z,1.38
2023-05-19T10:25:21.161Z,1.50
2023-05-19T10:27:56.424Z,1.00
2023-05-19T10:30:28.496Z,1.20
2023-05-19T10:32:59.277Z,1.52
2023-05-19T10:36:09.090Z,1.27
2023-05-19T10:38:44.137Z,1.10
2023-05-19T10:41:29.161Z,1.50
2023-05-19T10:44:11.812Z,1.25
2023-05-19T10:46:43.280Z,1.40
2023-05-19T10:49:21.200Z,1.20
2023-05-19T10:51:50.150Z,1.40
2023-05-19T10:54:21.570Z,1.15
2023-05-19T10:56:49.722Z,1.60
2023-05-19T10:59:37.850Z,1.20
2023-05-19T11:02:06.473Z,1.25
2023-05-19T11:04:41.729Z,1.13
2023-05-19T11:07:10.546Z,1.40
2023-05-19T11:09:42.110Z,1.73
2023-05-19T11:12:11.680Z,1.30
2023-05-19T11:14:41.600Z,1.30
2023-05-19T11:17:15.560Z,1.10
2023-05-19T11:19:54.980Z,1.30
2023-05-19T11:22:25.871Z,2.55
2023-05-19T11:24:56.736Z,1.23
2023-05-19T11:27:28.160Z,1.20
2023-05-19T11:29:59.431Z,1.10
2023-05-19T11:32:29.807Z,1.27
2023-05-19T11:34:59.464Z,1.10
2023-05-19T11:37:28.744Z,1.20
2023-05-19T11:42:25.673Z,1.15
2023-05-19T11:44:57.731Z,1.20
2023-05-19T11:47:27.070Z,1.20
2023-05-19T11:49:56.656Z,1.23
2023-05-19T11:52:25.690Z,1.27
2023-05-19T11:54:54.700Z,1.10
2023-05-19T11:57:22.701Z,1.40
2023-05-19T11:59:53.738Z,1.38
2023-05-19T12:02:26.108Z,1.35
2023-05-19T12:04:55.932Z,1.30
2023-05-19T12:07:25.017Z,1.30
2023-05-19T12:09:53.997Z,1.10
2023-05-19T12:12:23.469Z,1.40
2023-05-19T12:14:52.969Z,1.40
2023-05-19T12:17:23.934Z,1.65
2023-05-19T12:19:54.374Z,1.40
2023-05-19T12:22:22.520Z,1.23
2023-05-19T12:24:52.777Z,1.90
2023-05-19T12:27:22.921Z,1.50
2023-05-19T12:29:52.881Z,1.30
2023-05-19T12:32:24.084Z,1.10
2023-05-19T12:34:54.330Z,1.40
2023-05-19T12:37:28.449Z,1.38
2023-05-19T12:39:57.166Z,1.33
2023-05-19T12:42:31.599Z,1.37
2023-05-19T12:45:02.969Z,1.55
2023-05-19T12:47:39.394Z,1.48
2023-05-19T12:50:14.540Z,1.63
2023-05-19T12:52:48.397Z,1.40
2023-05-19T12:55:21.355Z,1.50
2023-05-19T12:57:58.880Z,1.40
2023-05-19T13:00:31.380Z,1.63
2023-05-19T13:03:16.147Z,1.45
2023-05-19T13:05:50.481Z,1.33
2023-05-19T13:08:21.704Z,1.50
2023-05-19T13:10:50.394Z,1.58
2023-05-19T13:13:19.391Z,1.40
2023-05-19T13:15:49.695Z,1.63
2023-05-19T13:18:18.601Z,1.60
2023-05-19T13:20:50.613Z,1.45
2023-05-19T13:23:18.697Z,1.40
2023-05-19T13:25:46.914Z,1.70
2023-05-19T13:28:15.387Z,1.70
2023-05-19T13:30:45.473Z,1.40
2023-05-19T13:33:13.828Z,1.60
2023-05-19T13:35:42.541Z,1.50
2023-05-19T13:38:12.039Z,1.60
2023-05-19T13:40:40.920Z,1.92
2023-05-19T13:43:10.252Z,1.70
2023-05-19T13:45:38.710Z,1.40
2023-05-19T13:48:08.141Z,1.90
2023-05-19T13:50:37.132Z,1.55
2023-05-19T13:53:05.251Z,1.40
2023-05-19T13:55:34.902Z,1.30
2023-05-19T13:58:04.008Z,1.55
2023-05-19T14:00:32.981Z,1.50
2023-05-19T14:03:01.403Z,1.10
2023-05-19T14:05:31.577Z,1.70
2023-05-19T14:08:01.158Z,1.55
2023-05-19T14:10:29.754Z,1.10
2023-05-19T14:15:34.880Z,1.13
2023-05-19T14:18:04.159Z,1.10
2023-05-19T14:20:33.598Z,1.05
2023-05-19T14:23:02.174Z,1.20
2023-05-19T14:25:32.129Z,1.10
2023-05-19T14:28:01.878Z,1.30
2023-05-19T14:30:30.516Z,1.20
2023-05-19T14:32:58.529Z,1.60
2023-05-19T14:35:27.935Z,1.05
2023-05-19T14:37:55.894Z,1.53
2023-05-19T14:40:24.340Z,1.40
2023-05-19T14:42:52.969Z,1.57
2023-05-19T14:45:23.050Z,1.13
2023-05-19T14:47:53.284Z,1.20
2023-05-19T14:50:21.998Z,1.50
2023-05-19T14:52:50.333Z,1.10
2023-05-19T14:55:19.312Z,1.17
2023-05-19T14:57:47.959Z,1.02
2023-05-19T15:00:17.435Z,1.20
2023-05-19T15:02:50.293Z,1.40
2023-05-19T15:05:19.555Z,1.30
2023-05-19T15:07:48.236Z,1.20
2023-05-19T15:10:17.177Z,1.20
2023-05-19T15:12:45.842Z,1.40
2023-05-19T15:15:14.397Z,1.17
2023-05-19T15:17:43.247Z,1.23
2023-05-19T15:20:14.213Z,1.40
2023-05-19T15:22:43.301Z,1.50
2023-05-19T15:25:12.475Z,1.10
2023-05-19T15:27:41.116Z,1.50
2023-05-19T15:30:10.302Z,1.30
2023-05-19T15:32:39.662Z,1.17
2023-05-19T15:35:09.517Z,1.38
2023-05-19T15:37:39.887Z,1.20
2023-05-19T15:40:09.577Z,1.20
2023-05-19T15:45:08.404Z,1.30
2023-05-19T15:47:36.842Z,1.10
2023-05-19T15:50:05.768Z,1.25
2023-05-19T15:52:35.819Z,1.20
2023-05-19T15:55:11.212Z,0.90
2023-05-19T15:57:40.397Z,1.52
2023-05-19T16:00:10.222Z,1.10
2023-05-19T16:02:39.172Z,1.00
2023-05-19T16:05:08.659Z,1.40
2023-05-19T16:07:37.166Z,1.17
2023-05-19T16:10:06.412Z,1.20
2023-05-19T16:12:37.125Z,1.10
2023-05-19T16:15:05.805Z,1.20
2023-05-19T16:17:36.988Z,1.20
2023-05-19T16:20:05.623Z,1.10
2023-05-19T16:22:33.795Z,1.80
2023-05-19T16:25:02.301Z,1.17
2023-05-19T16:27:30.269Z,1.52
2023-05-19T16:30:01.088Z,1.15
2023-05-19T16:32:30.176Z,1.15
2023-05-19T16:34:58.151Z,1.10
2023-05-19T16:37:26.569Z,0.90
2023-05-19T16:39:54.947Z,1.20
2023-05-19T16:42:23.682Z,1.25
2023-05-19T16:44:52.572Z,1.05
2023-05-19T16:47:24.046Z,1.33
2023-05-19T16:49:52.060Z,1.60
2023-05-19T16:52:20.592Z,1.30
2023-05-19T16:54:49.085Z,1.10
2023-05-19T16:57:17.509Z,1.38
2023-05-19T16:59:45.573Z,1.10
2023-05-19T17:02:14.000Z,1.75
2023-05-19T17:04:43.347Z,1.65
2023-05-19T17:07:16.049Z,1.60
2023-05-19T17:09:44.586Z,1.25
2023-05-19T17:12:13.382Z,1.05
2023-05-19T17:14:44.024Z,1.30
2023-05-19T17:17:12.105Z,1.40
2023-05-19T17:19:43.953Z,1.33
2023-05-19T17:22:12.418Z,1.50
2023-05-19T17:24:40.372Z,1.30
2023-05-19T17:27:08.828Z,1.27
2023-05-19T17:29:37.286Z,1.48
2023-05-19T17:32:05.813Z,1.25
2023-05-19T17:34:33.821Z,1.27
2023-05-19T17:37:03.718Z,1.10
2023-05-19T17:39:31.694Z,1.30
2023-05-19T17:42:00.381Z,1.00
2023-05-19T17:44:28.795Z,1.40
2023-05-19T17:46:56.898Z,1.20
2023-05-19T17:49:26.414Z,1.25
2023-05-19T17:51:55.074Z,1.23
2023-05-19T17:54:26.715Z,1.60
2023-05-19T17:56:58.635Z,1.75
2023-05-19T17:59:27.233Z,1.73
2023-05-19T18:01:56.378Z,2.08
2023-05-19T18:04:25.415Z,1.65
2023-05-19T18:06:53.850Z,1.70
2023-05-19T18:09:28.925Z,2.00
2023-05-19T18:12:03.709Z,1.67
2023-05-19T18:14:32.706Z,1.58
2023-05-19T18:17:01.282Z,1.80
2023-05-19T18:19:29.808Z,1.30
2023-05-19T18:21:58.785Z,1.20
2023-05-19T18:24:28.725Z,1.40
2023-05-19T18:26:57.047Z,1.20
2023-05-19T18:29:25.574Z,1.60
2023-05-19T18:31:54.010Z,1.10
2023-05-19T18:34:22.159Z,1.23
2023-05-19T18:36:50.903Z,1.10
2023-05-19T18:39:19.298Z,1.00
2023-05-19T18:41:49.722Z,1.30
2023-05-19T18:44:18.701Z,1.27
2023-05-19T18:46:46.709Z,1.40
2023-05-19T18:49:15.158Z,1.23
2023-05-19T18:51:43.540Z,1.20
2023-05-19T18:54:12.597Z,1.52
2023-05-19T18:56:41.424Z,1.50
2023-05-19T18:59:11.290Z,1.88
2023-05-19T19:04:07.720Z,1.35
2023-05-19T19:06:35.979Z,1.10
2023-05-19T19:09:05.295Z,1.30
2023-05-19T19:11:33.389Z,1.13
2023-05-19T19:14:01.591Z,1.25
2023-05-19T19:16:31.733Z,1.40
2023-05-19T19:19:00.277Z,1.40
2023-05-19T19:21:29.786Z,1.17
2023-05-19T19:23:58.679Z,1.30
2023-05-19T19:26:29.041Z,1.00
2023-05-19T19:28:58.162Z,1.27
2023-05-19T19:31:28.753Z,1.20
2023-05-19T19:34:03.048Z,1.30
2023-05-19T19:36:32.463Z,1.10
2023-05-19T19:39:00.991Z,1.20
2023-05-19T19:41:29.824Z,1.40
2023-05-19T19:43:58.393Z,1.10
2023-05-19T19:46:26.550Z,1.25
2023-05-19T19:49:00.371Z,1.30
2023-05-19T19:51:28.792Z,1.05
2023-05-19T19:53:56.753Z,1.50
2023-05-19T19:56:26.365Z,1.45
2023-05-19T19:58:56.865Z,1.45
2023-05-19T20:01:28.122Z,1.17
2023-05-19T20:03:58.389Z,1.30
2023-05-19T20:06:27.199Z,1.50
2023-05-19T20:08:55.753Z,1.58
2023-05-19T20:11:24.546Z,1.50
2023-05-19T20:13:52.980Z,1.40
2023-05-19T20:16:21.664Z,1.67
2023-05-19T20:18:50.316Z,1.65
2023-05-19T20:21:22.156Z,1.60
2023-05-19T20:23:51.123Z,1.60
2023-05-19T20:26:19.031Z,1.58
2023-05-19T20:28:47.470Z,1.73
2023-05-19T20:31:15.477Z,2.20
2023-05-19T20:33:43.729Z,1.90
2023-05-19T20:36:11.972Z,1.67
2023-05-19T20:38:41.347Z,2.10
2023-05-19T20:41:09.838Z,1.80
2023-05-19T20:43:39.605Z,2.15
2023-05-19T20:48:36.023Z,1.80
2023-05-19T20:51:04.064Z,1.90
2023-05-19T20:53:32.157Z,1.80
2023-05-19T20:56:01.518Z,1.90
2023-05-19T20:58:31.485Z,1.85
2023-05-19T21:00:59.576Z,1.88
2023-05-19T21:03:28.586Z,1.90
2023-05-19T21:05:57.211Z,1.90
2023-05-19T21:08:25.406Z,2.00
2023-05-19T21:10:53.636Z,1.80
2023-05-19T21:13:23.489Z,1.80
2023-05-19T21:18:19.298Z,1.83
2023-05-19T21:20:47.786Z,1.90
2023-05-19T21:23:15.830Z,1.70
2023-05-19T21:25:45.398Z,2.38
2023-05-19T21:28:13.637Z,2.20
2023-05-19T21:30:44.462Z,2.10
2023-05-19T21:33:12.520Z,1.90
2023-05-19T21:35:41.018Z,1.70
2023-05-19T21:38:22.750Z,1.95
2023-05-19T21:40:52.734Z,1.98
2023-05-19T21:43:21.871Z,1.65
2023-05-19T21:45:52.197Z,1.60
2023-05-19T21:48:21.449Z,2.30
2023-05-19T21:50:54.057Z,1.60
2023-05-19T21:53:22.154Z,1.73
2023-05-19T21:55:50.192Z,1.80
2023-05-19T21:58:19.540Z,1.75
2023-05-19T22:00:51.503Z,2.00
2023-05-19T22:03:20.996Z,1.70
2023-05-19T22:05:52.718Z,1.90
2023-05-19T22:08:22.809Z,2.03
2023-05-19T22:10:51.920Z,2.10
2023-05-19T22:13:20.711Z,2.53
2023-05-19T22:15:49.698Z,1.88
2023-05-19T22:18:19.015Z,2.05
2023-05-19T22:20:48.019Z,1.95
2023-05-19T22:23:16.350Z,1.90
2023-05-19T22:25:44.492Z,2.00
2023-05-19T22:28:12.627Z,1.88
2023-05-19T22:30:42.590Z,1.75
2023-05-19T22:33:11.297Z,2.08
2023-05-19T22:35:41.757Z,1.92
2023-05-19T22:38:10.718Z,1.58
2023-05-19T22:40:39.238Z,2.20
2023-05-19T22:43:07.233Z,2.20
2023-05-19T22:45:36.448Z,2.00
2023-05-19T22:48:04.937Z,1.80
2023-05-19T22:50:33.019Z,1.42
2023-05-19T22:53:02.830Z,1.77
2023-05-19T22:55:33.129Z,1.60
2023-05-19T22:58:01.954Z,1.95
2023-05-19T23:00:30.449Z,1.58
2023-05-19T23:02:59.002Z,1.83
2023-05-19T23:05:27.066Z,1.80
2023-05-19T23:07:55.268Z,1.73
2023-05-19T23:10:24.651Z,1.92
2023-05-19T23:12:54.129Z,1.70
2023-05-19T23:15:22.173Z,1.50
2023-05-19T23:17:50.171Z,1.90
2023-05-19T23:20:18.836Z,1.88
2023-05-19T23:22:46.789Z,1.80
2023-05-19T23:25:15.261Z,1.95
2023-05-19T23:27:46.916Z,1.60
2023-05-19T23:30:14.924Z,1.75
2023-05-19T23:32:43.395Z,1.60
2023-05-19T23:35:12.916Z,1.85
2023-05-19T23:37:41.253Z,1.98
2023-05-19T23:40:11.008Z,1.60
2023-05-19T23:42:39.040Z,1.80
2023-05-19T23:45:10.440Z,1.75
2023-05-19T23:47:38.594Z,1.95
2023-05-19T23:50:07.427Z,2.00
2023-05-19T23:52:36.589Z,1.92
2023-05-19T23:55:04.789Z,1.85
2023-05-19T23:57:33.808Z,1.90
